Time;durP1;ratioP1;P1;durP2;ratioP2;P2;SDS_P1;SDS_P2;PMS_P1;PMS_P2;Temp;Humidity;BMP_temperature;BMP_pressure;BME280_temperature;BME280_humidity;BME280_pressure;Samples;Min_cycle;Max_cycle;Signal;HPM_P1;HPM_P2
2021/04/11 00:00:40;;;;;;;12.63;9.05;;;9.90;99.90;;;;;;1841492;76;21172;-67
2021/04/11 00:03:11;;;;;;;;;;;10.00;99.90;;;;;;1849479;76;21105;-67
2021/04/11 00:05:40;;;;;;;11.85;9.05;;;10.10;99.90;;;;;;1850863;76;20209;-66
2021/04/11 00:08:10;;;;;;;13.83;9.70;;;10.00;99.90;;;;;;1849021;76;21053;-65
2021/04/11 00:10:40;;;;;;;10.85;9.55;;;9.80;99.90;;;;;;1820158;76;21665;-67
2021/04/11 00:13:16;;;;;;;12.50;9.93;;;9.90;99.90;;;;;;1851321;76;21112;-67
2021/04/11 00:15:44;;;;;;;12.30;9.23;;;10.00;99.90;;;;;;1847746;76;21118;-67
2021/04/11 00:18:12;;;;;;;12.35;10.25;;;10.00;99.90;;;;;;1843264;76;21113;-67
2021/04/11 00:20:39;;;;;;;13.88;11.05;;;10.10;99.90;;;;;;1849480;76;21121;-67
2021/04/11 00:23:07;;;;;;;11.85;10.53;;;10.10;99.90;;;;;;1853364;76;21104;-66
2021/04/11 00:25:37;;;;;;;12.95;10.88;;;10.10;99.90;;;;;;1847659;76;22210;-65
2021/04/11 00:28:05;;;;;;;13.05;10.70;;;10.10;99.90;;;;;;1857161;76;21046;-66
2021/04/11 00:30:33;;;;;;;13.32;11.45;;;10.20;99.90;;;;;;1866499;73;21161;-71
2021/04/11 00:33:03;;;;;;;13.93;11.78;;;10.20;99.90;;;;;;1914989;73;21065;-70
2021/04/11 00:35:30;;;;;;;15.32;12.28;;;10.20;99.90;;;;;;1912510;73;21096;-68
2021/04/11 00:37:58;;;;;;;13.38;11.83;;;10.30;99.90;;;;;;1917100;73;21076;-69
2021/04/11 00:40:31;;;;;;;14.40;13.00;;;10.40;99.90;;;;;;1908067;73;21127;-70
2021/04/11 00:43:04;;;;;;;14.28;12.85;;;10.40;99.90;;;;;;1888604;74;21303;-69
2021/04/11 00:45:46;;;;;;;14.75;12.90;;;10.40;99.90;;;;;;1889902;74;21045;-69
2021/04/11 00:48:17;;;;;;;15.48;13.88;;;10.40;99.90;;;;;;1887380;74;21026;-69
2021/04/11 00:51:05;;;;;;;16.93;14.40;;;10.40;99.90;;;;;;1885952;74;21237;-68
2021/04/11 00:53:33;;;;;;;16.65;14.70;;;10.30;99.90;;;;;;1885174;74;21083;-69
2021/04/11 00:56:03;;;;;;;18.02;15.53;;;10.30;99.90;;;;;;1886975;74;21391;-70
2021/04/11 00:58:32;;;;;;;18.57;16.02;;;10.30;99.90;;;;;;1886266;74;21165;-69
2021/04/11 01:01:00;;;;;;;18.32;15.88;;;10.40;99.90;;;;;;1890732;74;21102;-69
2021/04/11 01:03:31;;;;;;;18.32;16.42;;;10.40;99.90;;;;;;1892916;74;21139;-69
2021/04/11 01:05:59;;;;;;;19.32;16.62;;;10.40;99.90;;;;;;1892768;74;21545;-70
2021/04/11 01:08:32;;;;;;;19.12;17.17;;;10.50;99.90;;;;;;1887443;74;21076;-70
2021/04/11 01:11:06;;;;;;;21.00;18.82;;;10.50;99.90;;;;;;1891747;74;21514;-70
2021/04/11 01:13:35;;;;;;;19.55;17.30;;;10.50;99.90;;;;;;1889917;74;21049;-71
2021/04/11 01:16:04;;;;;;;19.50;17.50;;;10.50;99.90;;;;;;1891941;74;21653;-71
2021/04/11 01:18:31;;;;;;;20.57;18.37;;;10.50;99.90;;;;;;1889570;74;21103;-70
2021/04/11 01:21:02;;;;;;;20.88;18.67;;;10.50;99.90;;;;;;1891364;74;21139;-71
2021/04/11 01:23:32;;;;;;;23.73;20.48;;;10.50;99.90;;;;;;1887962;74;21594;-70
2021/04/11 01:26:01;;;;;;;22.52;20.12;;;10.50;99.90;;;;;;1887924;74;21175;-71
2021/04/11 01:28:38;;;;;;;25.10;21.68;;;10.50;99.90;;;;;;1890752;74;21074;-70
2021/04/11 01:31:07;;;;;;;26.62;23.00;;;10.50;99.90;;;;;;1889203;74;21310;-70
2021/04/11 01:33:37;;;;;;;27.73;23.80;;;10.50;99.90;;;;;;1890296;74;21085;-70
2021/04/11 01:36:08;;;;;;;27.22;23.95;;;10.50;99.90;;;;;;1891405;74;21089;-70
2021/04/11 01:38:38;;;;;;;29.23;25.05;;;10.60;99.90;;;;;;1888068;74;21150;-71
2021/04/11 01:41:11;;;;;;;29.35;25.48;;;10.60;99.90;;;;;;1889414;74;21216;-70
2021/04/11 01:43:39;;;;;;;29.92;26.82;;;10.60;99.90;;;;;;1889114;74;21575;-71
2021/04/11 01:46:08;;;;;;;29.40;26.35;;;10.60;99.90;;;;;;1889790;74;21056;-70
2021/04/11 01:48:37;;;;;;;30.55;27.20;;;10.60;99.90;;;;;;1889562;74;21613;-71
2021/04/11 01:51:07;;;;;;;30.27;27.05;;;10.60;99.90;;;;;;1887938;73;21164;-70
2021/04/11 01:53:35;;;;;;;30.25;27.15;;;10.60;99.90;;;;;;1887006;74;21064;-70
2021/04/11 01:56:05;;;;;;;32.20;28.77;;;10.60;99.90;;;;;;1886671;74;21184;-70
2021/04/11 01:58:35;;;;;;;30.30;27.10;;;10.70;99.90;;;;;;1888057;74;21103;-70
2021/04/11 02:01:24;;;;;;;32.70;28.83;;;10.70;99.90;;;;;;1888531;74;21119;-70
2021/04/11 02:03:59;;;;;;;31.57;28.15;;;10.70;99.90;;;;;;1886963;74;21155;-70
2021/04/11 02:06:28;;;;;;;33.83;30.20;;;10.70;99.90;;;;;;1889706;74;21193;-70
2021/04/11 02:09:01;;;;;;;34.58;30.43;;;10.70;99.90;;;;;;1886298;73;21669;-70
2021/04/11 02:11:29;;;;;;;34.45;29.07;;;10.70;99.90;;;;;;1892032;74;21057;-71
2021/04/11 02:13:59;;;;;;;34.13;30.45;;;10.70;99.90;;;;;;1888055;74;21056;-70
2021/04/11 02:16:32;;;;;;;35.30;30.48;;;10.70;99.90;;;;;;1890013;74;21112;-70
2021/04/11 02:19:06;;;;;;;33.10;29.35;;;10.80;99.90;;;;;;1885610;74;21240;-69
2021/04/11 02:21:35;;;;;;;33.75;30.15;;;10.70;99.90;;;;;;1890770;74;21178;-70
2021/04/11 02:24:06;;;;;;;34.53;30.48;;;10.70;99.90;;;;;;1884696;73;21609;-70
2021/04/11 02:26:36;;;;;;;36.20;31.55;;;10.60;99.90;;;;;;1888660;74;21099;-70
2021/04/11 02:29:09;;;;;;;35.33;31.33;;;10.70;99.90;;;;;;1890600;74;21068;-71
2021/04/11 02:31:36;;;;;;;36.38;30.88;;;10.80;99.90;;;;;;1889574;74;21257;-70
2021/04/11 02:34:07;;;;;;;37.45;31.90;;;10.80;99.90;;;;;;1891361;74;21127;-69
2021/04/11 02:36:42;;;;;;;36.58;31.95;;;10.70;99.90;;;;;;1892068;74;21092;-69
2021/04/11 02:39:13;;;;;;;35.88;31.90;;;10.70;99.90;;;;;;1890988;74;21516;-69
2021/04/11 02:41:42;;;;;;;37.45;33.35;;;10.70;99.90;;;;;;1888624;74;21159;-68
2021/04/11 02:44:10;;;;;;;36.13;32.17;;;10.70;99.90;;;;;;1889428;74;21662;-70
2021/04/11 02:46:39;;;;;;;36.05;31.77;;;10.70;99.90;;;;;;1891361;74;21553;-69
2021/04/11 02:49:10;;;;;;;37.25;32.23;;;10.60;99.90;;;;;;1890776;74;21216;-69
2021/04/11 02:51:38;;;;;;;36.70;32.25;;;10.80;99.90;;;;;;1889825;74;21518;-71
2021/04/11 02:54:09;;;;;;;36.53;32.63;;;10.80;99.90;;;;;;1891316;74;21476;-70
2021/04/11 02:56:40;;;;;;;37.23;31.60;;;10.90;99.90;;;;;;1893052;74;21491;-71
2021/04/11 02:59:07;;;;;;;35.73;31.05;;;10.90;99.90;;;;;;1889737;74;21687;-70
2021/04/11 03:01:38;;;;;;;34.55;30.85;;;10.90;99.90;;;;;;1891910;74;21611;-71
2021/04/11 03:04:07;;;;;;;36.60;32.15;;;11.00;99.90;;;;;;1888967;74;22363;-71
2021/04/11 03:06:37;;;;;;;36.03;32.13;;;11.00;99.90;;;;;;1891956;74;21073;-71
2021/04/11 03:09:08;;;;;;;42.30;32.23;;;10.90;99.90;;;;;;1887031;73;21088;-72
2021/04/11 03:11:47;;;;;;;38.90;31.97;;;10.90;99.90;;;;;;1888602;74;21319;-70
2021/04/11 03:14:18;;;;;;;35.38;31.57;;;10.90;99.90;;;;;;1889989;74;21109;-69
2021/04/11 03:16:46;;;;;;;35.58;31.77;;;10.90;99.90;;;;;;1886868;74;21057;-69
2021/04/11 03:19:19;;;;;;;36.58;31.42;;;11.00;99.90;;;;;;1890914;74;21181;-69
2021/04/11 03:21:47;;;;;;;34.98;31.17;;;11.00;99.90;;;;;;1892052;74;22104;-70
2021/04/11 03:24:14;;;;;;;35.40;31.42;;;11.00;99.90;;;;;;1887499;74;21118;-71
2021/04/11 03:26:45;;;;;;;34.35;30.72;;;11.00;99.90;;;;;;1892030;74;21091;-71
2021/04/11 03:29:35;;;;;;;38.60;30.75;;;11.00;99.90;;;;;;1888808;74;21545;-71
2021/04/11 03:32:11;;;;;;;36.53;31.68;;;11.00;99.90;;;;;;1891702;74;21108;-71
2021/04/11 03:34:40;;;;;;;34.43;30.72;;;11.00;99.90;;;;;;1890493;74;21467;-71
2021/04/11 03:37:10;;;;;;;34.53;29.85;;;11.00;99.90;;;;;;1888092;74;21106;-72
2021/04/11 03:39:38;;;;;;;35.23;30.37;;;11.00;99.90;;;;;;1892584;74;21042;-73
2021/04/11 03:42:11;;;;;;;35.92;30.30;;;11.00;99.90;;;;;;1895544;74;21079;-72
2021/04/11 03:44:39;;;;;;;35.63;30.57;;;11.10;99.90;;;;;;1888907;74;21082;-71
2021/04/11 03:47:15;;;;;;;34.53;29.50;;;11.10;99.90;;;;;;1893151;74;21068;-71
2021/04/11 03:49:55;;;;;;;35.38;30.70;;;11.10;99.90;;;;;;1889687;74;21099;-70
2021/04/11 03:52:29;;;;;;;33.80;29.95;;;11.00;99.90;;;;;;1889523;74;21157;-71
2021/04/11 03:54:58;;;;;;;33.13;29.52;;;11.00;99.90;;;;;;1890066;74;21308;-71
2021/04/11 03:57:37;;;;;;;35.95;27.75;;;11.10;99.90;;;;;;1888321;74;21571;-71
2021/04/11 04:00:11;;;;;;;35.73;30.40;;;11.00;99.90;;;;;;1888906;74;21215;-71
2021/04/11 04:02:42;;;;;;;32.63;29.12;;;11.10;99.90;;;;;;1889734;74;21092;-71
2021/04/11 04:05:12;;;;;;;34.20;29.87;;;11.10;99.90;;;;;;1890800;74;21056;-71
2021/04/11 04:07:51;;;;;;;34.80;29.80;;;11.00;99.90;;;;;;1889916;74;21104;-71
2021/04/11 04:10:22;;;;;;;33.92;30.08;;;11.00;99.90;;;;;;1885192;74;21760;-71
2021/04/11 04:13:11;;;;;;;33.85;28.25;;;11.00;99.90;;;;;;1889761;74;21205;-71
2021/04/11 04:15:50;;;;;;;33.25;28.95;;;10.90;99.90;;;;;;1890261;74;21096;-70
2021/04/11 04:18:54;;;;;;;37.05;29.67;;;11.00;99.90;;;;;;1885917;74;21146;-70
2021/04/11 04:21:46;;;;;;;36.55;30.32;;;11.10;99.90;;;;;;1889470;74;21174;-70
2021/04/11 04:24:28;;;;;;;36.17;30.50;;;11.10;99.90;;;;;;1887471;74;21137;-70
2021/04/11 04:27:10;;;;;;;37.50;30.20;;;11.10;99.90;;;;;;1890439;74;21056;-70
2021/04/11 04:29:57;;;;;;;33.98;29.52;;;11.10;99.90;;;;;;1886882;74;21076;-69
2021/04/11 04:32:44;;;;;;;32.40;28.87;;;11.10;99.90;;;;;;1890662;73;21185;-70
2021/04/11 06:32:39;;;;;;;28.55;23.50;;;11.00;99.90;;;;;;1916679;71;21148;-70
2021/04/11 06:35:09;;;;;;;30.62;24.80;;;11.10;99.90;;;;;;1917216;74;21414;-70
2021/04/11 06:37:39;;;;;;;29.95;24.00;;;11.20;99.90;;;;;;1917680;74;21209;-69
2021/04/11 06:40:10;;;;;;;27.17;23.77;;;11.30;99.90;;;;;;1918293;74;21081;-69
2021/04/11 06:42:40;;;;;;;25.85;23.07;;;11.30;99.90;;;;;;1902978;74;21543;-69
2021/04/11 06:45:27;;;;;;;27.48;23.77;;;11.30;99.90;;;;;;1907846;74;21006;-69
2021/04/11 06:48:12;;;;;;;27.13;22.40;;;11.20;99.90;;;;;;1910108;74;21045;-69
2021/04/11 06:51:10;;;;;;;28.77;23.55;;;11.10;99.90;;;;;;1909429;74;21190;-69
2021/04/11 06:53:57;;;;;;;26.95;22.95;;;11.20;99.90;;;;;;1908547;74;21532;-69
2021/04/11 06:56:48;;;;;;;25.62;21.42;;;11.10;99.90;;;;;;1910079;74;21087;-69
2021/04/11 06:59:19;;;;;;;24.47;21.17;;;11.20;99.90;;;;;;1912780;74;21081;-69
2021/04/11 07:02:04;;;;;;;20.45;18.17;;;11.20;99.90;;;;;;1907246;74;21677;-70
2021/04/11 07:04:53;;;;;;;21.70;18.12;;;11.10;99.90;;;;;;1912261;74;21076;-69
2021/04/11 07:07:33;;;;;;;22.45;18.37;;;11.00;99.90;;;;;;1910546;74;21104;-70
2021/04/11 07:10:30;;;;;;;17.98;15.48;;;11.20;99.90;;;;;;1911534;74;21034;-70
2021/04/11 07:13:34;;;;;;;14.85;13.30;;;11.20;99.90;;;;;;1878993;75;21131;-70
2021/04/11 07:16:29;;;;;;;13.25;11.85;;;11.20;99.90;;;;;;1875429;75;21116;-70
2021/04/11 07:19:29;;;;;;;14.50;12.15;;;11.10;99.90;;;;;;1916353;74;21061;-70
2021/04/11 07:22:32;;;;;;;15.63;12.98;;;11.00;99.90;;;;;;1875353;75;21132;-70
2021/04/11 07:25:34;;;;;;;17.57;15.68;;;11.10;99.90;;;;;;1851752;76;21136;-70
2021/04/11 07:28:14;;;;;;;19.20;16.97;;;11.10;99.90;;;;;;1953826;73;21546;-71
2021/04/11 07:30:53;;;;;;;19.07;15.90;;;11.00;99.90;;;;;;1938858;73;21069;-70
2021/04/11 07:33:23;;;;;;;21.73;17.62;;;11.00;99.90;;;;;;1944527;72;21022;-71
2021/04/11 07:36:11;;;;;;;15.65;13.05;;;11.10;99.90;;;;;;1948363;73;21031;-68
2021/04/11 07:39:05;;;;;;;13.18;10.50;;;11.00;99.90;;;;;;1953497;73;21571;-70
2021/04/11 07:41:44;;;;;;;12.10;10.80;;;10.90;99.90;;;;;;1942413;73;21120;-69
2021/04/11 07:44:35;;;;;;;9.38;8.38;;;10.90;99.90;;;;;;1946353;73;21084;-68
2021/04/11 07:47:14;;;;;;;8.90;7.65;;;10.90;99.90;;;;;;1949593;73;21093;-69
2021/04/11 07:49:45;;;;;;;8.35;7.28;;;10.80;99.90;;;;;;1945525;73;21655;-68
2021/04/11 07:52:47;;;;;;;8.40;7.45;;;10.70;99.90;;;;;;1945708;71;21117;-69
2021/04/11 07:55:23;;;;;;;7.92;7.00;;;10.80;99.90;;;;;;1947951;73;21096;-69
2021/04/11 07:58:28;;;;;;;8.58;6.92;;;10.80;99.90;;;;;;1934979;73;21100;-69
2021/04/11 08:01:04;;;;;;;7.30;6.58;;;10.90;99.90;;;;;;1944615;72;21227;-69
2021/04/11 08:03:37;;;;;;;7.97;6.85;;;10.80;99.90;;;;;;1942042;73;21149;-69
2021/04/11 08:06:14;;;;;;;6.92;6.22;;;10.80;99.90;;;;;;1943743;72;21112;-69
2021/04/11 08:08:47;;;;;;;7.65;6.22;;;10.80;99.90;;;;;;1946268;72;21026;-68
2021/04/11 08:11:53;;;;;;;7.05;6.35;;;10.70;99.90;;;;;;1943132;73;21169;-68
2021/04/11 08:14:29;;;;;;;7.85;7.05;;;10.50;99.90;;;;;;1932995;72;21602;-69
2021/04/11 08:17:19;;;;;;;6.60;5.83;;;10.30;99.90;;;;;;1942749;72;21783;-68
2021/04/11 08:20:08;;;;;;;10.08;8.53;;;10.00;99.90;;;;;;1953333;73;21154;-69
2021/04/11 08:23:00;;;;;;;9.30;8.25;;;10.10;99.90;;;;;;1939157;72;21128;-68
2021/04/11 08:25:39;;;;;;;8.13;7.27;;;10.10;99.90;;;;;;1937105;73;21586;-68
2021/04/11 08:28:35;;;;;;;7.35;6.12;;;10.10;99.90;;;;;;1940499;72;21994;-68
2021/04/11 08:31:38;;;;;;;9.28;6.87;;;10.20;99.90;;;;;;1936203;72;21074;-68
2021/04/11 08:34:25;;;;;;;7.15;5.78;;;10.10;99.90;;;;;;1943722;73;21480;-68
2021/04/11 08:37:10;;;;;;;6.78;6.08;;;10.10;99.90;;;;;;1949716;73;21072;-70
2021/04/11 08:39:57;;;;;;;6.47;5.53;;;10.10;99.90;;;;;;1939540;73;21586;-69
2021/04/11 08:42:37;;;;;;;7.28;5.10;;;9.90;99.90;;;;;;1939291;72;21143;-68
2021/04/11 08:45:25;;;;;;;6.70;4.90;;;9.90;99.90;;;;;;1947550;72;21124;-68
2021/04/11 08:47:59;;;;;;;6.95;5.25;;;9.80;99.90;;;;;;1953963;73;21543;-68
2021/04/11 08:50:29;;;;;;;5.70;5.08;;;9.90;99.90;;;;;;1945078;72;21085;-68
2021/04/11 08:53:09;;;;;;;7.53;5.35;;;9.90;99.90;;;;;;1940622;73;21116;-68
2021/04/11 08:55:42;;;;;;;18.30;6.50;;;9.60;99.90;;;;;;1941748;73;21205;-68
2021/04/11 08:58:29;;;;;;;6.25;5.20;;;9.60;99.90;;;;;;1933583;72;21145;-68
2021/04/11 09:01:27;;;;;;;6.58;4.83;;;9.30;99.90;;;;;;1935123;73;21147;-69
2021/04/11 09:04:21;;;;;;;6.90;4.65;;;9.20;99.90;;;;;;1942006;72;21205;-70
2021/04/11 09:07:07;;;;;;;6.58;5.00;;;9.20;99.90;;;;;;1945898;72;21073;-69
2021/04/11 09:10:10;;;;;;;6.35;4.80;;;9.40;99.90;;;;;;1948375;72;21135;-69
2021/04/11 09:12:59;;;;;;;6.00;4.58;;;9.50;99.90;;;;;;1947447;72;21152;-69
2021/04/11 09:15:54;;;;;;;5.85;4.47;;;9.60;99.90;;;;;;1941599;73;21666;-69
2021/04/11 09:18:51;;;;;;;5.60;4.47;;;9.50;99.90;;;;;;1945444;72;22428;-70
2021/04/11 09:21:47;;;;;;;6.20;4.30;;;9.60;99.90;;;;;;1948815;73;21623;-69
2021/04/11 09:24:36;;;;;;;5.33;4.15;;;9.30;99.90;;;;;;1950603;73;21168;-69
2021/04/11 09:27:30;;;;;;;4.55;3.75;;;9.20;99.90;;;;;;1942216;72;21071;-69
2021/04/11 09:30:25;;;;;;;4.42;3.80;;;9.30;99.90;;;;;;1943524;72;21089;-69
2021/04/11 09:33:04;;;;;;;7.62;5.22;;;9.40;99.90;;;;;;1945588;72;21140;-70
2021/04/11 09:35:53;;;;;;;6.10;4.03;;;9.60;99.90;;;;;;1946811;72;21061;-69
2021/04/11 09:38:26;;;;;;;6.40;4.03;;;9.60;99.90;;;;;;1944460;72;21138;-69
2021/04/11 09:41:30;;;;;;;5.53;4.53;;;9.60;99.90;;;;;;1941895;72;21061;-69
2021/04/11 09:44:06;;;;;;;6.75;5.00;;;9.70;99.90;;;;;;1948317;72;21084;-69
2021/04/11 09:47:09;;;;;;;6.60;4.53;;;9.70;99.90;;;;;;1944963;72;21131;-69
2021/04/11 09:50:02;;;;;;;7.53;4.10;;;9.50;99.90;;;;;;1956638;72;21162;-70
2021/04/11 09:52:55;;;;;;;7.12;4.70;;;9.40;99.90;;;;;;1947486;72;21132;-70
2021/04/11 09:55:44;;;;;;;7.03;4.95;;;9.40;99.90;;;;;;1948157;73;21602;-69
2021/04/11 09:58:36;;;;;;;6.22;4.40;;;9.40;99.90;;;;;;1940077;72;21085;-68
2021/04/11 10:01:23;;;;;;;7.85;4.67;;;9.20;99.90;;;;;;1881456;73;21105;-69
2021/04/11 10:03:59;;;;;;;7.28;4.65;;;9.30;99.90;;;;;;1938105;73;21139;-68
2021/04/11 10:06:46;;;;;;;5.85;5.25;;;9.30;99.90;;;;;;1950190;73;21078;-70
2021/04/11 10:09:33;;;;;;;8.08;6.35;;;9.40;99.90;;;;;;1947950;73;21160;-70
2021/04/11 10:12:40;;;;;;;7.47;5.85;;;9.50;99.90;;;;;;1939823;73;21164;-70
2021/04/11 10:15:16;;;;;;;7.53;6.08;;;9.50;99.90;;;;;;1951770;73;21150;-71
2021/04/11 10:18:11;;;;;;;6.67;5.92;;;9.60;99.90;;;;;;1940135;73;21092;-71
2021/04/11 10:21:07;;;;;;;8.50;6.83;;;9.70;99.90;;;;;;1939103;73;21228;-69
2021/04/11 10:23:54;;;;;;;7.00;5.00;;;9.60;99.90;;;;;;1949576;73;21076;-71
2021/04/11 10:26:34;;;;;;;8.03;4.10;;;9.50;99.90;;;;;;1947104;72;21260;-70
2021/04/11 10:29:04;;;;;;;4.72;3.70;;;9.40;99.90;;;;;;1942884;72;21136;-70
2021/04/11 10:31:45;;;;;;;5.45;3.90;;;9.50;99.90;;;;;;1947498;71;21590;-70
2021/04/11 10:34:16;;;;;;;5.22;3.70;;;9.50;99.90;;;;;;1935646;73;21089;-70
2021/04/11 10:36:52;;;;;;;7.37;3.52;;;9.50;99.90;;;;;;1951556;73;21037;-69
2021/04/11 10:39:40;;;;;;;4.83;3.08;;;9.60;99.90;;;;;;1940341;72;21164;-77
2021/04/11 10:42:32;;;;;;;4.33;2.70;;;9.60;99.90;;;;;;1940924;71;21164;-80
2021/04/11 10:45:23;;;;;;;3.57;2.83;;;9.70;99.90;;;;;;1946926;72;21077;-83
2021/04/11 10:48:18;;;;;;;3.03;2.60;;;9.70;99.90;;;;;;1939076;72;21076;-82
2021/04/11 10:50:54;;;;;;;2.75;2.20;;;9.60;99.90;;;;;;1955918;72;21574;-79
2021/04/11 10:53:34;;;;;;;4.50;2.55;;;9.60;99.90;;;;;;1946290;72;21123;-78
2021/04/11 10:56:19;;;;;;;4.42;2.92;;;9.50;99.90;;;;;;1951089;72;21597;-80
2021/04/11 10:59:23;;;;;;;3.52;2.75;;;9.50;99.90;;;;;;1947673;72;21072;-83
2021/04/11 11:01:56;;;;;;;4.12;2.22;;;9.40;99.90;;;;;;1942959;73;21132;-81
2021/04/11 11:04:33;;;;;;;3.15;1.60;;;9.30;99.90;;;;;;1948084;73;22002;-81
2021/04/11 11:07:06;;;;;;;3.65;1.37;;;9.40;99.90;;;;;;1942181;73;21111;-82
2021/04/11 11:09:45;;;;;;;2.67;1.27;;;9.40;99.90;;;;;;1946498;72;21027;-81
2021/04/11 11:12:21;;;;;;;1.95;1.20;;;9.30;99.90;;;;;;1946291;72;21121;-81
2021/04/11 11:14:58;;;;;;;2.60;1.00;;;9.30;99.90;;;;;;1930793;73;21120;-80
2021/04/11 11:17:46;;;;;;;2.10;1.32;;;9.40;99.90;;;;;;1944077;73;21025;-70
2021/04/11 11:20:34;;;;;;;2.67;1.75;;;9.40;99.90;;;;;;1939784;73;21150;-70
2021/04/11 11:23:07;;;;;;;3.33;1.80;;;9.40;99.90;;;;;;1935240;72;21096;-70
2021/04/11 11:26:13;;;;;;;3.37;2.00;;;9.40;99.90;;;;;;1943538;72;21584;-70
2021/04/11 11:28:55;;;;;;;4.47;1.98;;;9.40;99.90;;;;;;1948204;72;21096;-71
2021/04/11 11:31:40;;;;;;;3.20;2.42;;;9.40;99.90;;;;;;1946024;72;21156;-72
2021/04/11 11:34:17;;;;;;;4.47;1.92;;;9.50;99.90;;;;;;1942149;73;21122;-69
2021/04/11 11:37:02;;;;;;;3.08;1.35;;;9.50;99.90;;;;;;1887196;73;21164;-70
2021/04/11 11:39:41;;;;;;;2.98;1.20;;;9.30;99.90;;;;;;1944949;72;21205;-70
2021/04/11 11:42:15;;;;;;;1.72;0.85;;;9.40;99.90;;;;;;1955638;71;21057;-78
2021/04/11 11:44:54;;;;;;;1.12;0.75;;;9.40;99.90;;;;;;1948584;72;21433;-78
2021/04/11 11:47:42;;;;;;;4.67;1.00;;;9.50;99.90;;;;;;1932796;73;21666;-78
2021/04/11 11:50:30;;;;;;;1.77;1.22;;;9.60;99.90;;;;;;1948259;72;21045;-79
2021/04/11 11:53:17;;;;;;;3.62;1.60;;;9.50;99.90;;;;;;1951165;73;21061;-78
2021/04/11 11:55:48;;;;;;;4.90;1.75;;;9.60;99.90;;;;;;1949228;73;21468;-77
2021/04/11 11:58:30;;;;;;;3.72;1.20;;;9.70;99.90;;;;;;1939687;73;21018;-79
2021/04/11 12:01:02;;;;;;;;;;;9.50;99.90;;;;;;1947229;73;21084;-77
2021/04/11 12:03:36;;;;;;;4.35;1.50;;;9.40;99.90;;;;;;1952027;73;20169;-78
2021/04/11 12:06:09;;;;;;;5.12;1.82;;;9.40;99.90;;;;;;1938492;73;21109;-78
2021/04/11 12:08:48;;;;;;;4.08;1.82;;;9.50;99.90;;;;;;1951760;72;21174;-79
2021/04/11 12:11:36;;;;;;;5.20;2.20;;;9.60;99.90;;;;;;1947857;71;21221;-79
2021/04/11 12:14:12;;;;;;;2.87;1.50;;;9.50;99.90;;;;;;1943819;72;21588;-80
2021/04/11 12:16:59;;;;;;;2.35;0.98;;;9.40;99.90;;;;;;1946066;73;21080;-74
2021/04/11 12:19:32;;;;;;;5.25;1.45;;;9.40;99.90;;;;;;1947678;72;21104;-70
2021/04/11 12:22:06;;;;;;;3.75;1.72;;;9.50;99.90;;;;;;1944614;73;21066;-70
2021/04/11 12:24:39;;;;;;;5.17;1.87;;;9.50;99.90;;;;;;1943730;73;21075;-78
2021/04/11 12:27:10;;;;;;;5.55;1.77;;;9.60;99.90;;;;;;1951411;73;21921;-78
2021/04/11 12:29:43;;;;;;;5.40;1.62;;;9.60;99.90;;;;;;1954666;73;21159;-78
2021/04/11 12:32:28;;;;;;;2.98;1.20;;;9.60;99.90;;;;;;1934385;72;21061;-79
2021/04/11 12:35:16;;;;;;;6.95;2.20;;;9.60;99.90;;;;;;1903290;74;21118;-74
2021/04/11 12:37:52;;;;;;;5.25;1.55;;;9.60;99.90;;;;;;1890749;74;21637;-75
2021/04/11 12:40:41;;;;;;;4.90;1.40;;;9.60;99.90;;;;;;1903112;74;21568;-74
2021/04/11 12:43:14;;;;;;;4.58;1.27;;;9.70;99.90;;;;;;1864769;74;21060;-74
2021/04/11 12:45:47;;;;;;;4.58;1.10;;;9.60;99.90;;;;;;1890158;74;21153;-74
2021/04/11 12:48:18;;;;;;;3.30;1.20;;;9.60;99.90;;;;;;1892015;74;21024;-69
2021/04/11 12:51:07;;;;;;;4.03;1.57;;;9.60;99.90;;;;;;1892726;74;21087;-69
2021/04/11 12:53:40;;;;;;;2.37;1.32;;;9.60;99.90;;;;;;1896660;74;21109;-71
2021/04/11 12:56:10;;;;;;;3.22;1.60;;;9.60;99.90;;;;;;1889879;74;21208;-70
2021/04/11 12:58:41;;;;;;;4.53;1.35;;;9.60;99.90;;;;;;1897893;74;21601;-70
2021/04/11 13:01:17;;;;;;;5.30;1.98;;;9.60;99.90;;;;;;1873530;74;21076;-70
2021/04/11 13:04:09;;;;;;;5.78;2.12;;;9.60;99.90;;;;;;1887688;74;21130;-69
2021/04/11 13:06:54;;;;;;;6.27;2.30;;;9.60;99.90;;;;;;1890154;74;21212;-69
2021/04/11 13:09:31;;;;;;;6.33;2.10;;;9.60;99.90;;;;;;1896735;74;21568;-69
2021/04/11 13:12:20;;;;;;;6.78;2.05;;;9.70;99.90;;;;;;1892242;74;21217;-69
2021/04/11 13:15:05;;;;;;;6.45;2.10;;;9.70;99.90;;;;;;1894520;74;21748;-69
2021/04/11 13:17:39;;;;;;;6.60;1.67;;;9.70;99.90;;;;;;1889726;74;21158;-69
2021/04/11 13:20:18;;;;;;;5.17;1.80;;;9.70;99.90;;;;;;1899661;74;22130;-69
2021/04/11 13:23:00;;;;;;;4.25;1.22;;;9.60;99.90;;;;;;1896408;74;21076;-69
2021/04/11 13:25:37;;;;;;;6.85;1.35;;;9.70;99.90;;;;;;1888185;74;21160;-69
2021/04/11 13:28:08;;;;;;;3.45;1.10;;;9.60;99.90;;;;;;1893743;74;21104;-70
2021/04/11 13:30:50;;;;;;;3.05;1.15;;;9.50;99.90;;;;;;1894393;74;21122;-70
2021/04/11 13:33:26;;;;;;;4.85;2.02;;;9.50;99.90;;;;;;1791874;79;21195;-70
2021/04/11 13:36:05;;;;;;;5.55;2.10;;;9.60;99.90;;;;;;1892826;74;21099;-70
2021/04/11 13:38:42;;;;;;;4.72;1.87;;;9.70;99.90;;;;;;1895729;74;21539;-69
2021/04/11 13:41:35;;;;;;;5.42;1.60;;;9.60;99.90;;;;;;1896014;74;21091;-70
2021/04/11 13:44:05;;;;;;;3.95;1.85;;;9.60;99.90;;;;;;1887363;74;21581;-70
2021/04/11 13:46:48;;;;;;;3.80;1.30;;;9.60;99.90;;;;;;1898199;74;21176;-70
2021/04/11 13:49:30;;;;;;;2.40;0.90;;;9.60;99.90;;;;;;1846074;74;21598;-70
2021/04/11 13:52:12;;;;;;;5.95;1.22;;;9.50;99.90;;;;;;1893548;74;21119;-70
2021/04/11 13:54:46;;;;;;;4.37;1.17;;;9.50;99.90;;;;;;1883615;74;21099;-69
2021/04/11 13:57:28;;;;;;;4.80;1.50;;;9.50;99.90;;;;;;1894190;74;21658;-69
2021/04/11 14:00:02;;;;;;;4.10;1.27;;;9.50;99.90;;;;;;1893027;74;21166;-70
2021/04/11 14:02:38;;;;;;;7.75;2.05;;;9.60;99.90;;;;;;1884803;74;21247;-69
2021/04/11 14:05:12;;;;;;;4.85;1.40;;;9.60;99.90;;;;;;1890573;74;21601;-70
2021/04/11 14:07:49;;;;;;;3.25;0.82;;;9.60;99.90;;;;;;1891287;74;21113;-69
2021/04/11 14:10:47;;;;;;;2.87;0.90;;;9.70;99.90;;;;;;1893376;74;21083;-69
2021/04/11 14:13:41;;;;;;;6.10;1.00;;;9.60;99.90;;;;;;1891620;74;21188;-70
2021/04/11 14:16:26;;;;;;;3.90;0.90;;;9.70;99.90;;;;;;1891368;74;21118;-69
2021/04/11 14:18:57;;;;;;;3.15;0.85;;;9.70;99.90;;;;;;1890952;74;21106;-70
2021/04/11 14:21:27;;;;;;;3.50;0.90;;;9.60;99.90;;;;;;1804641;78;21218;-69
2021/04/11 14:24:10;;;;;;;3.75;1.50;;;9.70;99.90;;;;;;1816454;77;21118;-70
2021/04/11 14:27:01;;;;;;;2.90;0.80;;;9.70;99.90;;;;;;1901736;74;21118;-70
2021/04/11 14:30:05;;;;;;;3.12;0.80;;;9.60;99.90;;;;;;1892864;74;21091;-70
2021/04/11 14:32:42;;;;;;;2.92;1.02;;;9.70;99.90;;;;;;1898788;74;21078;-71
2021/04/11 14:35:18;;;;;;;4.08;1.10;;;9.60;99.90;;;;;;1900742;74;21182;-70
2021/04/11 14:37:57;;;;;;;2.10;0.90;;;9.60;99.90;;;;;;1892809;74;21148;-70
2021/04/11 14:40:30;;;;;;;6.55;1.20;;;9.70;99.90;;;;;;1878490;74;21071;-70
2021/04/11 14:43:18;;;;;;;2.72;1.20;;;9.70;99.90;;;;;;1897503;74;21130;-70
2021/04/11 14:45:51;;;;;;;4.22;1.10;;;9.80;99.90;;;;;;1899016;74;21095;-68
2021/04/11 14:48:25;;;;;;;3.35;0.95;;;9.70;99.90;;;;;;1896095;74;22166;-67
2021/04/11 14:50:54;;;;;;;4.65;1.30;;;9.80;99.90;;;;;;1905895;74;22196;-68
2021/04/11 14:53:54;;;;;;;6.12;1.00;;;9.70;99.90;;;;;;1896336;74;21236;-74
2021/04/11 14:56:43;;;;;;;3.72;1.17;;;9.70;99.90;;;;;;1901435;74;21095;-79
2021/04/11 14:59:24;;;;;;;7.90;1.30;;;9.70;99.90;;;;;;1895113;74;21638;-78
2021/04/11 15:02:11;;;;;;;3.75;1.30;;;9.70;99.90;;;;;;1900374;74;21597;-77
2021/04/11 15:04:44;;;;;;;4.60;1.02;;;9.70;99.90;;;;;;1902671;74;21032;-78
2021/04/11 15:07:24;;;;;;;4.42;1.10;;;9.70;99.90;;;;;;1899837;74;21098;-78
2021/04/11 15:10:06;;;;;;;7.28;1.27;;;9.70;99.90;;;;;;1895340;74;21139;-71
2021/04/11 15:12:39;;;;;;;6.37;1.47;;;9.70;99.90;;;;;;1901390;74;21596;-77
2021/04/11 15:15:15;;;;;;;3.72;1.00;;;9.60;99.90;;;;;;1895179;74;21582;-70
2021/04/11 15:18:15;;;;;;;7.97;1.42;;;9.60;99.90;;;;;;1897283;74;21019;-70
2021/04/11 15:20:57;;;;;;;3.87;1.10;;;9.60;99.90;;;;;;1895815;74;21568;-69
2021/04/11 15:23:27;;;;;;;4.00;1.20;;;9.70;99.90;;;;;;1900829;74;21087;-69
2021/04/11 15:26:13;;;;;;;2.70;0.90;;;9.70;99.90;;;;;;1899872;74;21025;-70
2021/04/11 15:28:52;;;;;;;3.87;1.12;;;9.70;99.90;;;;;;1902342;74;21094;-70
2021/04/11 15:31:25;;;;;;;4.90;0.98;;;9.80;99.90;;;;;;1894651;74;21143;-70
2021/04/11 15:34:13;;;;;;;5.35;1.22;;;9.80;99.90;;;;;;1896157;74;21734;-70
2021/04/11 15:36:56;;;;;;;5.95;1.32;;;9.80;99.90;;;;;;1898316;74;21035;-70
2021/04/11 15:39:44;;;;;;;3.47;1.00;;;9.70;99.90;;;;;;1897423;74;21726;-69
2021/04/11 15:42:15;;;;;;;3.55;1.10;;;9.60;99.90;;;;;;1895596;74;21126;-70